Terminal Aerodrome Forecast
Issued by NWS

Home | Current Version | Previous Version | Text Only | Print | Product List | Glossary On
Versions: 1 2 3 4 5 6 7 8 9 10 11 12 13 14 15 16 17 18 19 20
000
FTUS43 KICT 282338
TAFSLN
TAF
KSLN 282338Z 2900/2924 16014G21KT P6SM OVC080
     FM290300 15008KT P6SM VCTS SCT020CB BKN035
      TEMPO 2903/2906 2SM -TSRA
     FM290700 16010KT P6SM VCTS BKN020CB OVC080
     FM291200 19011KT P6SM BKN012 OVC060
     FM291500 20010KT P6SM SCT050 BKN100=

USA.gov is the U.S. government's official web portal to all federal, state and local government web resources and services.